sensor_id;sensor_type;location;lat;lon;timestamp;temperature;humidity
70368;DHT22;57789;53.868;10.728;2022-08-14T00:00:00;20.30;99.90
70368;DHT22;57789;53.868;10.728;2022-08-14T00:02:26;20.30;99.90
70368;DHT22;57789;53.868;10.728;2022-08-14T00:04:51;20.30;99.90
70368;DHT22;57789;53.868;10.728;2022-08-14T00:07:17;20.10;99.90
70368;DHT22;57789;53.868;10.728;2022-08-14T00:09:44;20.10;99.90
70368;DHT22;57789;53.868;10.728;2022-08-14T00:12:10;20.20;99.90
70368;DHT22;57789;53.868;10.728;2022-08-14T00:14:37;20.10;99.90
70368;DHT22;57789;53.868;10.728;2022-08-14T00:17:03;20.10;99.90
70368;DHT22;57789;53.868;10.728;2022-08-14T00:19:29;20.10;99.90
70368;DHT22;57789;53.868;10.728;2022-08-14T00:21:55;20.00;99.90
70368;DHT22;57789;53.868;10.728;2022-08-14T00:24:21;20.00;99.90
70368;DHT22;57789;53.868;10.728;2022-08-14T00:26:47;20.10;99.90
70368;DHT22;57789;53.868;10.728;2022-08-14T00:29:13;20.00;99.90
70368;DHT22;57789;53.868;10.728;2022-08-14T00:31:39;19.90;99.90
70368;DHT22;57789;53.868;10.728;2022-08-14T00:34:07;19.80;99.90
70368;DHT22;57789;53.868;10.728;2022-08-14T00:36:33;19.80;99.90
70368;DHT22;57789;53.868;10.728;2022-08-14T00:38:59;19.70;99.90
70368;DHT22;57789;53.868;10.728;2022-08-14T00:41:30;19.70;99.90
70368;DHT22;57789;53.868;10.728;2022-08-14T00:43:57;19.80;99.90
70368;DHT22;57789;53.868;10.728;2022-08-14T00:46:23;19.80;99.90
70368;DHT22;57789;53.868;10.728;2022-08-14T00:48:49;19.80;99.90
70368;DHT22;57789;53.868;10.728;2022-08-14T00:51:15;19.70;99.90
70368;DHT22;57789;53.868;10.728;2022-08-14T00:53:41;19.70;99.90
70368;DHT22;57789;53.868;10.728;2022-08-14T00:56:07;19.60;99.90
70368;DHT22;57789;53.868;10.728;2022-08-14T00:58:34;19.60;99.90
70368;DHT22;57789;53.868;10.728;2022-08-14T01:01:08;19.60;99.90
70368;DHT22;57789;53.868;10.728;2022-08-14T01:03:36;19.60;99.90
70368;DHT22;57789;53.868;10.728;2022-08-14T01:06:06;19.60;99.90
70368;DHT22;57789;53.868;10.728;2022-08-14T01:08:36;19.50;99.90
70368;DHT22;57789;53.868;10.728;2022-08-14T01:11:03;19.40;99.90
70368;DHT22;57789;53.868;10.728;2022-08-14T01:13:33;19.40;99.90
70368;DHT22;57789;53.868;10.728;2022-08-14T01:16:03;19.40;99.90
70368;DHT22;57789;53.868;10.728;2022-08-14T01:18:30;19.30;99.90
70368;DHT22;57789;53.868;10.728;2022-08-14T01:21:21;19.20;99.90
70368;DHT22;57789;53.868;10.728;2022-08-14T01:23:49;19.10;99.90
70368;DHT22;57789;53.868;10.728;2022-08-14T01:26:17;19.10;99.90
70368;DHT22;57789;53.868;10.728;2022-08-14T01:28:46;19.20;99.90
70368;DHT22;57789;53.868;10.728;2022-08-14T01:31:15;19.20;99.90
70368;DHT22;57789;53.868;10.728;2022-08-14T01:33:46;19.30;99.90
70368;DHT22;57789;53.868;10.728;2022-08-14T01:36:14;19.40;99.90
70368;DHT22;57789;53.868;10.728;2022-08-14T01:38:45;19.30;99.90
70368;DHT22;57789;53.868;10.728;2022-08-14T01:41:15;19.40;99.90
70368;DHT22;57789;53.868;10.728;2022-08-14T01:46:19;19.30;99.90
70368;DHT22;57789;53.868;10.728;2022-08-14T01:48:45;19.40;99.90
70368;DHT22;57789;53.868;10.728;2022-08-14T01:51:13;19.30;99.90
70368;DHT22;57789;53.868;10.728;2022-08-14T01:53:43;19.30;99.90
70368;DHT22;57789;53.868;10.728;2022-08-14T01:56:10;19.20;99.90
70368;DHT22;57789;53.868;10.728;2022-08-14T01:58:37;19.30;99.90
70368;DHT22;57789;53.868;10.728;2022-08-14T02:01:04;19.30;99.90
70368;DHT22;57789;53.868;10.728;2022-08-14T02:03:31;19.20;99.90
70368;DHT22;57789;53.868;10.728;2022-08-14T02:06:01;19.20;99.90
70368;DHT22;57789;53.868;10.728;2022-08-14T02:08:27;19.30;99.90
70368;DHT22;57789;53.868;10.728;2022-08-14T02:10:57;19.30;99.90
70368;DHT22;57789;53.868;10.728;2022-08-14T02:13:42;19.20;99.90
70368;DHT22;57789;53.868;10.728;2022-08-14T02:16:12;19.30;99.90
70368;DHT22;57789;53.868;10.728;2022-08-14T02:18:41;19.20;99.90
70368;DHT22;57789;53.868;10.728;2022-08-14T02:21:07;19.10;99.90
70368;DHT22;57789;53.868;10.728;2022-08-14T02:23:33;19.10;99.90
70368;DHT22;57789;53.868;10.728;2022-08-14T02:26:01;19.10;99.90
70368;DHT22;57789;53.868;10.728;2022-08-14T02:28:29;19.10;99.90
70368;DHT22;57789;53.868;10.728;2022-08-14T02:30:59;19.10;99.90
70368;DHT22;57789;53.868;10.728;2022-08-14T02:33:25;19.10;99.90
70368;DHT22;57789;53.868;10.728;2022-08-14T02:35:52;19.00;99.90
70368;DHT22;57789;53.868;10.728;2022-08-14T02:38:19;19.00;99.90
70368;DHT22;57789;53.868;10.728;2022-08-14T02:40:45;19.00;99.90
70368;DHT22;57789;53.868;10.728;2022-08-14T02:43:11;19.00;99.90
70368;DHT22;57789;53.868;10.728;2022-08-14T02:45:38;18.90;99.90
70368;DHT22;57789;53.868;10.728;2022-08-14T02:48:05;18.90;99.90
70368;DHT22;57789;53.868;10.728;2022-08-14T02:50:32;18.80;99.90
70368;DHT22;57789;53.868;10.728;2022-08-14T02:53:04;18.90;99.90
70368;DHT22;57789;53.868;10.728;2022-08-14T02:55:30;18.90;99.90
70368;DHT22;57789;53.868;10.728;2022-08-14T02:57:56;18.90;99.90
70368;DHT22;57789;53.868;10.728;2022-08-14T03:00:22;18.90;99.90
70368;DHT22;57789;53.868;10.728;2022-08-14T03:02:48;18.90;99.90
70368;DHT22;57789;53.868;10.728;2022-08-14T03:05:15;18.90;99.90
70368;DHT22;57789;53.868;10.728;2022-08-14T03:07:42;18.90;99.90
70368;DHT22;57789;53.868;10.728;2022-08-14T03:10:09;18.90;99.90
70368;DHT22;57789;53.868;10.728;2022-08-14T03:12:35;18.90;99.90
70368;DHT22;57789;53.868;10.728;2022-08-14T03:15:03;19.00;99.90
70368;DHT22;57789;53.868;10.728;2022-08-14T03:17:35;19.00;99.90
70368;DHT22;57789;53.868;10.728;2022-08-14T03:20:01;19.10;99.90
70368;DHT22;57789;53.868;10.728;2022-08-14T03:22:29;19.20;99.90
70368;DHT22;57789;53.868;10.728;2022-08-14T03:24:54;19.10;99.90
70368;DHT22;57789;53.868;10.728;2022-08-14T03:27:20;19.20;99.90
70368;DHT22;57789;53.868;10.728;2022-08-14T03:29:45;19.10;99.90
70368;DHT22;57789;53.868;10.728;2022-08-14T03:32:12;19.10;99.90
70368;DHT22;57789;53.868;10.728;2022-08-14T03:34:38;19.10;99.90
70368;DHT22;57789;53.868;10.728;2022-08-14T03:37:03;19.10;99.90
70368;DHT22;57789;53.868;10.728;2022-08-14T03:39:29;19.00;99.90
70368;DHT22;57789;53.868;10.728;2022-08-14T03:41:55;18.90;99.90
70368;DHT22;57789;53.868;10.728;2022-08-14T03:44:22;18.80;99.90
70368;DHT22;57789;53.868;10.728;2022-08-14T03:46:48;18.80;99.90
70368;DHT22;57789;53.868;10.728;2022-08-14T03:49:15;18.80;99.90
70368;DHT22;57789;53.868;10.728;2022-08-14T03:51:44;18.70;99.90
70368;DHT22;57789;53.868;10.728;2022-08-14T03:54:10;18.70;99.90
70368;DHT22;57789;53.868;10.728;2022-08-14T03:56:37;18.90;99.90
70368;DHT22;57789;53.868;10.728;2022-08-14T03:59:09;18.80;99.90
70368;DHT22;57789;53.868;10.728;2022-08-14T04:01:37;18.80;99.90
70368;DHT22;57789;53.868;10.728;2022-08-14T04:04:04;18.80;99.90
70368;DHT22;57789;53.868;10.728;2022-08-14T04:06:32;18.70;99.90
70368;DHT22;57789;53.868;10.728;2022-08-14T04:08:58;18.70;99.90
70368;DHT22;57789;53.868;10.728;2022-08-14T04:11:23;18.70;99.90
70368;DHT22;57789;53.868;10.728;2022-08-14T04:13:49;18.70;99.90
70368;DHT22;57789;53.868;10.728;2022-08-14T04:16:17;18.80;99.90
70368;DHT22;57789;53.868;10.728;2022-08-14T04:18:48;18.80;99.90
70368;DHT22;57789;53.868;10.728;2022-08-14T04:21:16;18.80;99.90
70368;DHT22;57789;53.868;10.728;2022-08-14T04:23:43;18.80;99.90
70368;DHT22;57789;53.868;10.728;2022-08-14T04:26:12;18.80;99.90
70368;DHT22;57789;53.868;10.728;2022-08-14T04:28:40;18.80;99.90
70368;DHT22;57789;53.868;10.728;2022-08-14T04:31:06;18.80;99.90
70368;DHT22;57789;53.868;10.728;2022-08-14T04:33:32;18.90;99.90
70368;DHT22;57789;53.868;10.728;2022-08-14T04:35:58;19.00;99.90
70368;DHT22;57789;53.868;10.728;2022-08-14T04:38:24;19.00;99.90
70368;DHT22;57789;53.868;10.728;2022-08-14T04:41:08;19.10;99.90
70368;DHT22;57789;53.868;10.728;2022-08-14T04:43:52;19.10;99.90
70368;DHT22;57789;53.868;10.728;2022-08-14T04:46:20;19.10;99.90
70368;DHT22;57789;53.868;10.728;2022-08-14T04:48:46;19.10;99.90
70368;DHT22;57789;53.868;10.728;2022-08-14T04:51:17;19.10;99.90
70368;DHT22;57789;53.868;10.728;2022-08-14T04:53:46;19.20;99.90
70368;DHT22;57789;53.868;10.728;2022-08-14T04:56:17;19.20;99.90
70368;DHT22;57789;53.868;10.728;2022-08-14T04:58:44;19.20;99.90
70368;DHT22;57789;53.868;10.728;2022-08-14T05:01:11;19.20;99.90
70368;DHT22;57789;53.868;10.728;2022-08-14T05:03:39;19.20;99.90
70368;DHT22;57789;53.868;10.728;2022-08-14T05:06:09;19.30;99.90
70368;DHT22;57789;53.868;10.728;2022-08-14T05:08:36;19.30;99.90
70368;DHT22;57789;53.868;10.728;2022-08-14T05:11:04;19.40;99.90
70368;DHT22;57789;53.868;10.728;2022-08-14T05:13:31;19.40;99.90
70368;DHT22;57789;53.868;10.728;2022-08-14T05:15:59;19.50;99.90
70368;DHT22;57789;53.868;10.728;2022-08-14T05:18:27;19.50;99.90
70368;DHT22;57789;53.868;10.728;2022-08-14T05:20:55;19.60;99.90
70368;DHT22;57789;53.868;10.728;2022-08-14T05:23:23;19.60;99.90
70368;DHT22;57789;53.868;10.728;2022-08-14T05:25:52;19.70;99.90
70368;DHT22;57789;53.868;10.728;2022-08-14T05:28:25;19.70;99.90
70368;DHT22;57789;53.868;10.728;2022-08-14T05:31:01;19.80;99.90
70368;DHT22;57789;53.868;10.728;2022-08-14T05:33:29;19.90;99.90
70368;DHT22;57789;53.868;10.728;2022-08-14T05:35:57;19.90;99.90
70368;DHT22;57789;53.868;10.728;2022-08-14T05:38:27;20.00;99.90
70368;DHT22;57789;53.868;10.728;2022-08-14T05:40:54;20.10;99.90
70368;DHT22;57789;53.868;10.728;2022-08-14T05:43:21;20.20;99.90
70368;DHT22;57789;53.868;10.728;2022-08-14T05:45:47;20.30;99.90
70368;DHT22;57789;53.868;10.728;2022-08-14T05:48:14;20.30;99.90
70368;DHT22;57789;53.868;10.728;2022-08-14T05:50:40;20.40;99.90
70368;DHT22;57789;53.868;10.728;2022-08-14T05:53:06;20.50;99.90
70368;DHT22;57789;53.868;10.728;2022-08-14T05:55:33;20.60;99.90
70368;DHT22;57789;53.868;10.728;2022-08-14T05:58:01;20.70;99.90
70368;DHT22;57789;53.868;10.728;2022-08-14T06:00:35;20.70;99.90
70368;DHT22;57789;53.868;10.728;2022-08-14T06:03:02;20.80;99.90
70368;DHT22;57789;53.868;10.728;2022-08-14T06:05:29;20.90;99.90
70368;DHT22;57789;53.868;10.728;2022-08-14T06:07:56;21.00;99.90
70368;DHT22;57789;53.868;10.728;2022-08-14T06:10:21;21.10;99.90
70368;DHT22;57789;53.868;10.728;2022-08-14T06:12:47;21.00;99.90
70368;DHT22;57789;53.868;10.728;2022-08-14T06:15:13;21.10;99.90
70368;DHT22;57789;53.868;10.728;2022-08-14T06:17:50;21.20;99.90
70368;DHT22;57789;53.868;10.728;2022-08-14T06:20:17;21.20;99.90
70368;DHT22;57789;53.868;10.728;2022-08-14T06:22:44;21.30;99.90
70368;DHT22;57789;53.868;10.728;2022-08-14T06:25:12;21.40;99.90
70368;DHT22;57789;53.868;10.728;2022-08-14T06:27:44;21.50;99.90
70368;DHT22;57789;53.868;10.728;2022-08-14T06:30:22;21.50;99.90
70368;DHT22;57789;53.868;10.728;2022-08-14T06:32:48;21.60;99.90
70368;DHT22;57789;53.868;10.728;2022-08-14T06:35:15;21.60;99.90
70368;DHT22;57789;53.868;10.728;2022-08-14T06:37:56;21.70;99.90
70368;DHT22;57789;53.868;10.728;2022-08-14T06:40:30;21.70;99.90
70368;DHT22;57789;53.868;10.728;2022-08-14T06:42:58;21.80;99.90
70368;DHT22;57789;53.868;10.728;2022-08-14T06:45:24;21.80;99.90
70368;DHT22;57789;53.868;10.728;2022-08-14T06:47:50;21.70;99.90
70368;DHT22;57789;53.868;10.728;2022-08-14T06:50:18;21.80;99.90
70368;DHT22;57789;53.868;10.728;2022-08-14T06:52:45;21.80;99.90
70368;DHT22;57789;53.868;10.728;2022-08-14T06:55:12;21.80;99.90
70368;DHT22;57789;53.868;10.728;2022-08-14T06:57:43;21.80;99.90
70368;DHT22;57789;53.868;10.728;2022-08-14T07:00:14;21.90;99.90
70368;DHT22;57789;53.868;10.728;2022-08-14T07:02:41;21.90;99.90
70368;DHT22;57789;53.868;10.728;2022-08-14T07:05:25;21.90;99.90
70368;DHT22;57789;53.868;10.728;2022-08-14T07:08:19;22.00;99.90
70368;DHT22;57789;53.868;10.728;2022-08-14T07:10:46;22.10;99.90
70368;DHT22;57789;53.868;10.728;2022-08-14T07:13:13;22.10;99.90
70368;DHT22;57789;53.868;10.728;2022-08-14T07:15:40;22.20;99.90
70368;DHT22;57789;53.868;10.728;2022-08-14T07:18:07;22.20;99.90
70368;DHT22;57789;53.868;10.728;2022-08-14T07:20:34;22.30;99.90
70368;DHT22;57789;53.868;10.728;2022-08-14T07:23:02;22.40;99.90
70368;DHT22;57789;53.868;10.728;2022-08-14T07:25:27;22.40;99.90
70368;DHT22;57789;53.868;10.728;2022-08-14T07:27:54;22.50;99.90
70368;DHT22;57789;53.868;10.728;2022-08-14T07:30:20;22.60;99.90
70368;DHT22;57789;53.868;10.728;2022-08-14T07:32:47;22.70;99.90
70368;DHT22;57789;53.868;10.728;2022-08-14T07:35:12;22.80;99.90
70368;DHT22;57789;53.868;10.728;2022-08-14T07:37:38;22.90;99.90
70368;DHT22;57789;53.868;10.728;2022-08-14T07:40:05;23.10;99.90
70368;DHT22;57789;53.868;10.728;2022-08-14T07:42:30;23.30;99.90
70368;DHT22;57789;53.868;10.728;2022-08-14T07:44:57;23.20;99.90
70368;DHT22;57789;53.868;10.728;2022-08-14T07:47:23;23.40;99.90
70368;DHT22;57789;53.868;10.728;2022-08-14T07:50:10;23.60;99.90
70368;DHT22;57789;53.868;10.728;2022-08-14T07:52:40;23.70;99.90
70368;DHT22;57789;53.868;10.728;2022-08-14T07:55:06;23.90;99.90
70368;DHT22;57789;53.868;10.728;2022-08-14T07:57:32;24.00;99.90
70368;DHT22;57789;53.868;10.728;2022-08-14T07:59:58;24.00;99.90
70368;DHT22;57789;53.868;10.728;2022-08-14T08:02:29;24.20;99.90
70368;DHT22;57789;53.868;10.728;2022-08-14T08:04:56;24.30;99.90
70368;DHT22;57789;53.868;10.728;2022-08-14T08:07:25;24.40;99.90
70368;DHT22;57789;53.868;10.728;2022-08-14T08:09:55;24.60;99.90
70368;DHT22;57789;53.868;10.728;2022-08-14T08:12:25;24.60;99.90
70368;DHT22;57789;53.868;10.728;2022-08-14T08:14:51;24.80;99.90
70368;DHT22;57789;53.868;10.728;2022-08-14T08:17:17;25.10;99.90
70368;DHT22;57789;53.868;10.728;2022-08-14T08:19:45;25.10;99.90
70368;DHT22;57789;53.868;10.728;2022-08-14T08:22:12;25.20;99.90
70368;DHT22;57789;53.868;10.728;2022-08-14T08:24:37;25.40;99.90
70368;DHT22;57789;53.868;10.728;2022-08-14T08:27:16;25.50;99.90
70368;DHT22;57789;53.868;10.728;2022-08-14T08:29:42;25.60;99.90
70368;DHT22;57789;53.868;10.728;2022-08-14T08:32:08;25.50;99.90
70368;DHT22;57789;53.868;10.728;2022-08-14T08:34:42;25.60;99.90
70368;DHT22;57789;53.868;10.728;2022-08-14T08:37:14;25.70;99.90
70368;DHT22;57789;53.868;10.728;2022-08-14T08:39:44;25.90;99.90
70368;DHT22;57789;53.868;10.728;2022-08-14T08:42:10;26.10;99.90
70368;DHT22;57789;53.868;10.728;2022-08-14T08:44:36;26.00;99.90
70368;DHT22;57789;53.868;10.728;2022-08-14T08:47:02;26.10;99.90
70368;DHT22;57789;53.868;10.728;2022-08-14T08:52:04;26.30;99.90
70368;DHT22;57789;53.868;10.728;2022-08-14T08:54:29;26.20;99.90
70368;DHT22;57789;53.868;10.728;2022-08-14T08:56:55;26.30;99.90
70368;DHT22;57789;53.868;10.728;2022-08-14T08:59:30;26.50;99.90
70368;DHT22;57789;53.868;10.728;2022-08-14T09:01:58;26.90;99.90
70368;DHT22;57789;53.868;10.728;2022-08-14T09:04:36;27.00;99.90
70368;DHT22;57789;53.868;10.728;2022-08-14T09:07:06;27.10;99.90
70368;DHT22;57789;53.868;10.728;2022-08-14T09:09:32;27.20;99.90
70368;DHT22;57789;53.868;10.728;2022-08-14T09:12:00;27.10;99.90
70368;DHT22;57789;53.868;10.728;2022-08-14T09:14:30;27.40;99.90
70368;DHT22;57789;53.868;10.728;2022-08-14T09:16:59;27.60;99.90
70368;DHT22;57789;53.868;10.728;2022-08-14T09:19:26;27.70;99.90
70368;DHT22;57789;53.868;10.728;2022-08-14T09:21:52;27.90;99.90
70368;DHT22;57789;53.868;10.728;2022-08-14T09:24:19;27.90;99.90
70368;DHT22;57789;53.868;10.728;2022-08-14T09:26:45;27.80;99.90
70368;DHT22;57789;53.868;10.728;2022-08-14T09:29:11;27.80;99.90
70368;DHT22;57789;53.868;10.728;2022-08-14T09:31:45;28.00;99.90
70368;DHT22;57789;53.868;10.728;2022-08-14T09:36:45;28.50;99.90
70368;DHT22;57789;53.868;10.728;2022-08-14T09:42:38;28.80;99.90
70368;DHT22;57789;53.868;10.728;2022-08-14T09:45:16;28.70;99.90
70368;DHT22;57789;53.868;10.728;2022-08-14T09:47:54;28.80;99.90
70368;DHT22;57789;53.868;10.728;2022-08-14T09:50:26;28.90;99.90
70368;DHT22;57789;53.868;10.728;2022-08-14T09:55:23;29.00;99.90
70368;DHT22;57789;53.868;10.728;2022-08-14T09:57:50;29.10;99.90
70368;DHT22;57789;53.868;10.728;2022-08-14T10:00:17;29.40;99.90
70368;DHT22;57789;53.868;10.728;2022-08-14T10:02:54;29.60;99.90
70368;DHT22;57789;53.868;10.728;2022-08-14T10:05:33;29.80;99.90
70368;DHT22;57789;53.868;10.728;2022-08-14T10:08:00;29.80;99.90
70368;DHT22;57789;53.868;10.728;2022-08-14T10:10:37;29.60;99.90
70368;DHT22;57789;53.868;10.728;2022-08-14T10:13:05;29.70;99.90
70368;DHT22;57789;53.868;10.728;2022-08-14T10:15:35;29.70;99.90
70368;DHT22;57789;53.868;10.728;2022-08-14T10:18:11;29.40;99.90
70368;DHT22;57789;53.868;10.728;2022-08-14T10:20:49;29.40;99.90
70368;DHT22;57789;53.868;10.728;2022-08-14T10:23:20;29.40;99.90
70368;DHT22;57789;53.868;10.728;2022-08-14T10:25:49;29.30;99.90
70368;DHT22;57789;53.868;10.728;2022-08-14T10:28:17;29.00;99.90
70368;DHT22;57789;53.868;10.728;2022-08-14T10:30:44;28.90;99.90
70368;DHT22;57789;53.868;10.728;2022-08-14T10:33:24;28.90;99.90
70368;DHT22;57789;53.868;10.728;2022-08-14T10:35:49;28.80;99.90
70368;DHT22;57789;53.868;10.728;2022-08-14T10:38:28;28.80;99.90
70368;DHT22;57789;53.868;10.728;2022-08-14T10:40:54;28.50;99.90
70368;DHT22;57789;53.868;10.728;2022-08-14T10:43:25;28.40;99.90
70368;DHT22;57789;53.868;10.728;2022-08-14T10:45:54;28.50;99.90
70368;DHT22;57789;53.868;10.728;2022-08-14T10:48:20;28.60;99.90
70368;DHT22;57789;53.868;10.728;2022-08-14T10:50:45;28.80;99.90
70368;DHT22;57789;53.868;10.728;2022-08-14T10:53:26;28.60;99.90
70368;DHT22;57789;53.868;10.728;2022-08-14T10:55:58;28.60;99.90
70368;DHT22;57789;53.868;10.728;2022-08-14T10:58:28;28.70;99.90
70368;DHT22;57789;53.868;10.728;2022-08-14T11:00:57;28.90;99.90
70368;DHT22;57789;53.868;10.728;2022-08-14T11:03:23;29.00;99.90
70368;DHT22;57789;53.868;10.728;2022-08-14T11:05:50;29.10;99.90
70368;DHT22;57789;53.868;10.728;2022-08-14T11:08:28;29.00;99.90
70368;DHT22;57789;53.868;10.728;2022-08-14T11:10:57;29.00;99.90
70368;DHT22;57789;53.868;10.728;2022-08-14T11:13:29;29.20;99.90
70368;DHT22;57789;53.868;10.728;2022-08-14T11:15:58;29.50;99.90
70368;DHT22;57789;53.868;10.728;2022-08-14T11:18:28;29.70;99.90
70368;DHT22;57789;53.868;10.728;2022-08-14T11:20:58;29.80;99.90
70368;DHT22;57789;53.868;10.728;2022-08-14T11:23:28;29.80;99.90
70368;DHT22;57789;53.868;10.728;2022-08-14T11:25:56;29.80;99.90
70368;DHT22;57789;53.868;10.728;2022-08-14T11:28:25;29.50;99.90
70368;DHT22;57789;53.868;10.728;2022-08-14T11:30:52;29.50;99.90
70368;DHT22;57789;53.868;10.728;2022-08-14T11:33:26;29.30;99.90
70368;DHT22;57789;53.868;10.728;2022-08-14T11:36:02;29.20;99.90
70368;DHT22;57789;53.868;10.728;2022-08-14T11:38:44;29.10;99.90
70368;DHT22;57789;53.868;10.728;2022-08-14T11:41:12;29.10;99.90
70368;DHT22;57789;53.868;10.728;2022-08-14T11:43:42;29.00;99.90
70368;DHT22;57789;53.868;10.728;2022-08-14T11:46:09;29.10;99.90
70368;DHT22;57789;53.868;10.728;2022-08-14T11:51:18;29.10;99.90
70368;DHT22;57789;53.868;10.728;2022-08-14T11:54:05;29.10;99.90
70368;DHT22;57789;53.868;10.728;2022-08-14T11:56:36;29.10;99.90
70368;DHT22;57789;53.868;10.728;2022-08-14T11:59:06;29.30;99.90
70368;DHT22;57789;53.868;10.728;2022-08-14T12:01:32;29.30;99.90
70368;DHT22;57789;53.868;10.728;2022-08-14T12:04:15;29.40;99.90
70368;DHT22;57789;53.868;10.728;2022-08-14T12:06:50;29.50;99.90
70368;DHT22;57789;53.868;10.728;2022-08-14T12:09:31;29.50;99.90
70368;DHT22;57789;53.868;10.728;2022-08-14T12:11:57;29.50;99.90
70368;DHT22;57789;53.868;10.728;2022-08-14T12:14:24;29.60;99.90
70368;DHT22;57789;53.868;10.728;2022-08-14T12:17:00;29.40;99.90
70368;DHT22;57789;53.868;10.728;2022-08-14T12:19:26;29.40;99.90
70368;DHT22;57789;53.868;10.728;2022-08-14T12:21:52;29.30;99.90
70368;DHT22;57789;53.868;10.728;2022-08-14T12:24:26;29.20;99.90
70368;DHT22;57789;53.868;10.728;2022-08-14T12:26:55;29.20;99.90
70368;DHT22;57789;53.868;10.728;2022-08-14T12:29:21;29.30;99.90
70368;DHT22;57789;53.868;10.728;2022-08-14T12:32:00;29.20;99.90
70368;DHT22;57789;53.868;10.728;2022-08-14T12:34:32;29.30;99.90
70368;DHT22;57789;53.868;10.728;2022-08-14T12:37:06;29.20;99.90
70368;DHT22;57789;53.868;10.728;2022-08-14T12:39:34;29.30;99.90
70368;DHT22;57789;53.868;10.728;2022-08-14T12:42:01;29.30;99.90
70368;DHT22;57789;53.868;10.728;2022-08-14T12:44:39;29.20;99.90
70368;DHT22;57789;53.868;10.728;2022-08-14T12:47:13;29.20;99.90
70368;DHT22;57789;53.868;10.728;2022-08-14T12:49:52;29.50;99.90
70368;DHT22;57789;53.868;10.728;2022-08-14T12:52:29;29.50;99.90
70368;DHT22;57789;53.868;10.728;2022-08-14T12:55:05;29.50;99.90
70368;DHT22;57789;53.868;10.728;2022-08-14T12:57:43;29.50;99.90
70368;DHT22;57789;53.868;10.728;2022-08-14T13:02:45;29.30;99.90
70368;DHT22;57789;53.868;10.728;2022-08-14T13:05:12;29.30;99.90
70368;DHT22;57789;53.868;10.728;2022-08-14T13:07:40;29.20;99.90
70368;DHT22;57789;53.868;10.728;2022-08-14T13:10:11;29.10;99.90
70368;DHT22;57789;53.868;10.728;2022-08-14T13:12:39;29.00;99.90
70368;DHT22;57789;53.868;10.728;2022-08-14T13:15:08;29.00;99.90
70368;DHT22;57789;53.868;10.728;2022-08-14T13:17:52;29.00;99.90
70368;DHT22;57789;53.868;10.728;2022-08-14T13:20:20;29.10;99.90
70368;DHT22;57789;53.868;10.728;2022-08-14T13:22:46;28.90;99.90
70368;DHT22;57789;53.868;10.728;2022-08-14T13:25:17;28.80;99.90
70368;DHT22;57789;53.868;10.728;2022-08-14T13:27:49;28.90;99.90
70368;DHT22;57789;53.868;10.728;2022-08-14T13:30:16;29.10;99.90
70368;DHT22;57789;53.868;10.728;2022-08-14T13:32:43;29.10;99.90
70368;DHT22;57789;53.868;10.728;2022-08-14T13:35:14;29.20;99.90
70368;DHT22;57789;53.868;10.728;2022-08-14T13:37:42;29.30;99.90
70368;DHT22;57789;53.868;10.728;2022-08-14T13:40:18;29.70;99.90
70368;DHT22;57789;53.868;10.728;2022-08-14T13:42:47;29.90;99.90
70368;DHT22;57789;53.868;10.728;2022-08-14T13:45:14;30.30;99.90
70368;DHT22;57789;53.868;10.728;2022-08-14T13:47:41;30.30;99.90
70368;DHT22;57789;53.868;10.728;2022-08-14T13:50:09;30.30;99.90
70368;DHT22;57789;53.868;10.728;2022-08-14T13:52:42;30.40;99.90
70368;DHT22;57789;53.868;10.728;2022-08-14T13:55:09;30.30;99.90
70368;DHT22;57789;53.868;10.728;2022-08-14T13:57:39;30.10;99.90
70368;DHT22;57789;53.868;10.728;2022-08-14T14:00:08;30.50;99.90
70368;DHT22;57789;53.868;10.728;2022-08-14T14:02:38;30.70;99.90
70368;DHT22;57789;53.868;10.728;2022-08-14T14:05:04;30.80;99.90
70368;DHT22;57789;53.868;10.728;2022-08-14T14:07:32;30.50;99.90
70368;DHT22;57789;53.868;10.728;2022-08-14T14:10:04;30.00;99.90
70368;DHT22;57789;53.868;10.728;2022-08-14T14:12:33;30.00;99.90
70368;DHT22;57789;53.868;10.728;2022-08-14T14:15:00;29.90;99.90
70368;DHT22;57789;53.868;10.728;2022-08-14T14:17:27;29.70;99.90
70368;DHT22;57789;53.868;10.728;2022-08-14T14:19:53;29.70;99.90
70368;DHT22;57789;53.868;10.728;2022-08-14T14:22:19;29.70;99.90
70368;DHT22;57789;53.868;10.728;2022-08-14T14:24:45;29.70;99.90
70368;DHT22;57789;53.868;10.728;2022-08-14T14:27:12;29.60;99.90
70368;DHT22;57789;53.868;10.728;2022-08-14T14:29:48;29.60;99.90
70368;DHT22;57789;53.868;10.728;2022-08-14T14:32:16;29.60;99.90
70368;DHT22;57789;53.868;10.728;2022-08-14T14:34:42;29.40;99.90
70368;DHT22;57789;53.868;10.728;2022-08-14T14:37:12;29.30;99.90
70368;DHT22;57789;53.868;10.728;2022-08-14T14:39:40;29.00;99.90
70368;DHT22;57789;53.868;10.728;2022-08-14T14:42:07;28.90;99.90
70368;DHT22;57789;53.868;10.728;2022-08-14T14:44:38;28.80;99.90
70368;DHT22;57789;53.868;10.728;2022-08-14T14:47:08;28.70;99.90
70368;DHT22;57789;53.868;10.728;2022-08-14T14:49:35;28.70;99.90
70368;DHT22;57789;53.868;10.728;2022-08-14T14:52:02;28.70;99.90
70368;DHT22;57789;53.868;10.728;2022-08-14T14:54:30;28.70;99.90
70368;DHT22;57789;53.868;10.728;2022-08-14T14:57:01;28.80;99.90
70368;DHT22;57789;53.868;10.728;2022-08-14T14:59:29;28.90;99.90
70368;DHT22;57789;53.868;10.728;2022-08-14T15:01:59;29.00;99.90
70368;DHT22;57789;53.868;10.728;2022-08-14T15:04:26;29.20;99.90
70368;DHT22;57789;53.868;10.728;2022-08-14T15:06:52;29.50;99.90
70368;DHT22;57789;53.868;10.728;2022-08-14T15:09:18;30.10;99.40
70368;DHT22;57789;53.868;10.728;2022-08-14T15:11:44;30.60;98.60
70368;DHT22;57789;53.868;10.728;2022-08-14T15:14:10;30.70;98.10
70368;DHT22;57789;53.868;10.728;2022-08-14T15:16:36;30.70;98.00
70368;DHT22;57789;53.868;10.728;2022-08-14T15:19:02;31.00;97.40
70368;DHT22;57789;53.868;10.728;2022-08-14T15:21:28;31.00;97.50
70368;DHT22;57789;53.868;10.728;2022-08-14T15:23:55;30.90;97.50
70368;DHT22;57789;53.868;10.728;2022-08-14T15:26:23;30.30;98.00
70368;DHT22;57789;53.868;10.728;2022-08-14T15:28:49;30.20;98.60
70368;DHT22;57789;53.868;10.728;2022-08-14T15:31:17;30.00;98.90
70368;DHT22;57789;53.868;10.728;2022-08-14T15:33:43;29.90;99.10
70368;DHT22;57789;53.868;10.728;2022-08-14T15:36:27;29.80;99.20
70368;DHT22;57789;53.868;10.728;2022-08-14T15:38:54;30.10;99.10
70368;DHT22;57789;53.868;10.728;2022-08-14T15:41:20;30.50;98.20
70368;DHT22;57789;53.868;10.728;2022-08-14T15:43:46;31.10;97.60